Tiempo atmosférico en la estación meteorológica de Motril, Granada (3 m.)



Fecha
DESCASC
Temp. máxima en grados centígrados (hora)
DESCASC
Temp. mínima en grados centígrados (hora)
DESCASC
Temp. media en grados centígrados
DESCASC
Racha de viento máxima en m/sg (hora)
DESCASC
Velocidad máxima media en intervalos de 10 minutos(hora)
DESCASC
Precipitaciones diarias en mm
DESCASC
Precipitaciones de 00:00 a 06:00 en mm
DESCASC
Precipitaciones de 06:00 a 12:00 en mm
DESCASC
Precipitaciones de 12:00 a 18:00 en mm
DESCASC
Precipitaciones de 18:00 a 24:00 en mm
DESCASC
13-10-2019 27.1 (10:50) 18.4 (08:30) 22.8 7.22 (22:50) 5.28 (22:50) 0 0 0 0 0
12-10-2019 26.3 (11:10) 19 (06:40) 22.6 9.17 (13:40) 5.56 (13:50) 0 0 0 0 0
11-10-2019 25.6 (10:20) 19.2 (08:00) 22.4 7.22 (13:00) 4.44 (13:00) 0 0 0 0 0
10-10-2019 27.2 (11:10) 18.5 (00:00) 22.9 9.72 (17:00) 6.39 (16:50) 0 0 0 0 0
09-10-2019 26.6 (10:20) 17.2 (00:00) 21.9 3.89 (16:00) 2.22 (12:50) 0 0 0 0 0
08-10-2019 26.3 (11:30) 18.8 (00:00) 22.5 10 (13:20) 7.5 (13:20) 0 0 0 0 0
07-10-2019 25.8 (16:20) 17.1 (00:00) 21.4 3.89 (13:40) 2.5 (13:20) 0 0 0 0 0
06-10-2019 24.7 (14:30) 15.8 (00:00) 20.3 7.22 (11:10) 2.5 (13:30) 0 0 0 0 0
05-10-2019 26.2 (10:30) 16.5 (00:00) 21.4 4.17 (16:00) 2.78 (14:10) 0 0 0 0 0
04-10-2019 27.8 (10:20) 16.8 (00:00) 22.3 5.83 (12:10) 4.17 (12:50) 0 0 0 0 0
03-10-2019 27.4 (10:20) 17.2 (00:00) 22.3 7.22 (13:20) 3.89 (12:20) 0 0 0 0 0
02-10-2019 29.1 (19:40) 21.2 (00:00) 25.2 13.33 (07:30) 7.22 (07:40) 0 0 0 0 0
01-10-2019 30.1 (21:50) 17.3 (00:00) 23.7 14.17 (23:30) 6.39 (23:30) 0 0 0 0 0
30-09-2019 25.1 (11:00) 16.7 (00:00) 20.9 5.28 (17:50) 3.33 (16:30) 0 0 0 0 0
29-09-2019 26.7 (11:30) 17.6 (00:00) 22.2 6.39 (21:50) 2.78 (17:30) 0 0 0 0 0
28-09-2019 26 (11:20) 17.4 (00:00) 21.7 4.17 (15:20) 2.5 (14:10) 0 0 0 0 0
27-09-2019 24.5 (10:50) 18.2 (00:00) 21.4 5.56 (15:40) 3.06 (15:20) 0 0 0 0 0
26-09-2019 28.7 (10:00) 18.4 (00:00) 23.6 7.22 (12:50) 5.56 (12:50) 0 0 0 0 0
25-09-2019 27.5 (17:40) 17.6 (00:00) 22.6 4.72 (14:30) 3.61 (14:30) 0 0 0 0 0
24-09-2019 27.6 (10:40) 17.2 (00:00) 22.4 5 (11:00) 3.33 (11:00) 0 0 0 0 0
23-09-2019 28.1 (11:50) 19.8 (00:00) 23.9 8.33 (04:10) 6.39 (12:30) 0 0 0 0 0
22-09-2019 24.7 (15:20) 19.3 (00:00) 22 15.28 (19:10) 6.94 (19:20) 0 0 0 0 0
21-09-2019 26.2 (11:30) 21.4 (00:00) 23.8 5.28 (16:00) 3.06 (16:00) 0 0 0 0 0
20-09-2019 26.6 (13:50) 21.5 (00:00) 24.1 7.78 (12:00) 5.56 (11:50) 0 0 0 0 0
19-09-2019 26.8 (11:00) 19.4 (00:00) 23.1 4.44 (13:30) 3.33 (13:20) 0 0 0 0 0
18-09-2019 26.1 (14:50) 20.2 (00:00) 23.2 6.11 (16:10) 3.61 (16:10) 0 0 0 0 0
17-09-2019 27 (14:40) 21.7 (00:00) 24.4 9.44 (10:10) 5.83 (07:20) 0 0 0 0 0
16-09-2019 26.6 (16:10) 20.9 (00:00) 23.8 6.11 (10:20) 4.17 (11:00) 0 0 0 0 0
15-09-2019 27.7 (14:50) 20.6 (00:00) 24.2 5.56 (14:00) 3.06 (14:30) 0 0 0 0 0

Gráficas

Temp. máximas Temp. mínimas Temp. medias Precipitaciones Rachas de viento máximas Velocidades máximas media en intervalos de 10 minutos

Datos horarios

Fecha y hora oficial Temperatura (ºC) Velocidad del viento (km/h) Dirección del viento Racha (km/h) Dirección de racha Precipitación (mm) Presión (hPa) Tendencia (hPa) Humedad (%)
2019-10-14 23:00:00 21.1 14 Oeste 32 Oeste 0 1015.9 1.2 58
2019-10-14 22:00:00 20.7 12 Oeste 36 Oeste 0 1015.3 1.2 70
2019-10-14 21:00:00 21.4 22 Oeste 48 Oeste 0 1015.1 0.9 66
2019-10-14 20:00:00 21.9 22 Oeste 46 Oeste 0 1014.7 0.9 73
2019-10-14 19:00:00 21.8 19 Oeste 40 Oeste 0 1014.1 0.1 75
2019-10-14 18:00:00 22.3 15 Oeste 48 Oeste 0 1014.2 0.1 80
2019-10-14 17:00:00 21.7 27 Sudoeste 46 Sudoeste 0 1013.8 -0.6 80
2019-10-14 16:00:00 22.1 20 Oeste 44 Oeste 0 1014 -0.3 77
2019-10-14 15:00:00 22.8 22 Oeste 43 Oeste 0 1014.1 -0.3 77
2019-10-14 14:00:00 22.9 23 Oeste 55 Oeste 0 1014.4 -0.1 77
2019-10-14 13:00:00 23.1 21 Oeste 47 Oeste 0 1014.3 0.2 77
2019-10-14 12:00:00 22.6 16 Sudoeste 31 Sudoeste 0 1014.4 0.9 81
2019-10-14 11:00:00 22.5 9 Oeste 24 Oeste 0 1014.5 1.5 86
2019-10-14 10:00:00 21.6 0 Calma 14 Oeste 0 1014.1 1 88
2019-10-14 09:00:00 20.6 0 Calma 20 Sudoeste 0 1013.5 1.3 90
2019-10-14 08:00:00 20.9 0 Calma 10 Norte 0 1013 0.6 91
2019-10-14 07:00:00 21 0 Calma 11 Noroeste 0 1013.1 0.6 92
2019-10-14 06:00:00 21.2 3 Norte 11 Nordeste 0 1012.2 -0.7 93
2019-10-14 05:00:00 21 2 Norte 7 Norte 0 1012.4 -0.7 94
2019-10-14 04:00:00 20.9 0 Calma 9 Nordeste 0 1012.5 -0.5 95
2019-10-14 03:00:00 20.6 0 Calma 9 Oeste 0 1012.9 -0.6 95
2019-10-14 02:00:00 20.5 4 Norte 9 Noroeste 0 1013.1 -1.1 95
2019-10-14 01:00:00 20.6 7 Noroeste 19 Oeste 0 1013 -0.3 95
2019-10-14 00:00:00 21 4 Norte 13 Sudeste 0 1013.5 0.3 95
2019-10-13 23:00:00 21.5 13 Sudeste 26 Sudeste 0 1014.2 1.1 94
2019-10-13 22:00:00 21 4 Este 12 Sudeste 0 1013.3 -0.2 95
2019-10-13 21:00:00 21.7 0 Calma 8 Oeste 0 1013.2 -0.4 94
2019-10-13 20:00:00 21.9 3 Oeste 13 Sudoeste 0 1013.1 -0.4 93
2019-10-13 19:00:00 22.7 8 Sudoeste 16 Sudeste 0 1013.5 -0.4 90
2019-10-13 18:00:00 23.3 13 Sudeste 19 Sudeste 0 1013.6 -0.9 84
2019-10-13 17:00:00 24.3 10 Sudeste 21 Sudeste 0 1013.5 -2.1 80
2019-10-13 16:00:00 24.4 12 Sudeste 21 Sudeste 0 1013.9 -2.2 81
2019-10-13 15:00:00 24.8 8 Sudeste 14 Sudeste 0 1014.5 -1.6 80
2019-10-13 14:00:00 25.2 7 Sur 14 Sudeste 0 1015.6 -0.5 77
2019-10-13 13:00:00 24.6 10 Sudeste 13 Sudeste 0 1016.1 0.5 80
2019-10-13 12:00:00 24.1 6 Sur 9 Sur 0 1016.1 1 77
2019-10-13 11:00:00 26.1 3 Sur 5 Sur 0 1016.1 1.5 64
2019-10-13 10:00:00 25.5 0 Calma 4 Norte 0 1015.6 1.3 71
2019-10-13 09:00:00 19.3 2 Noroeste 6 Norte 0 1015.1 0.6 91
2019-10-13 08:00:00 19.1 3 Norte 6 Nordeste 0 1014.6 0.4 89
2019-10-13 07:00:00 19.4 3 Nordeste 9 Nordeste 0 1014.3 -0.6 89
2019-10-13 06:00:00 19.3 3 Nordeste 5 Nordeste 0 1014.5 -0.6 96
2019-10-13 05:00:00 19.3 2 Nordeste 5 Nordeste 0 1014.2 -1.3 98
2019-10-13 04:00:00 19.3 0 Calma 4 Norte 0 1014.9 -0.7 98
2019-10-13 03:00:00 19.8 0 Calma 3 Noroeste 0 1015.1 -0.8 96
2019-10-13 02:00:00 20.1 0 Calma 3 Este 0 1015.5 0 95
2019-10-13 01:00:00 20.5 0 Calma 4 Norte 0 1015.6 0.4 94
2019-10-13 00:00:00 20.9 0 Calma 3 Sudeste 0 1015.9 0.9 93
2019-10-12 23:00:00 21.6 0 Calma 5 Noroeste 0 1015.5 0.7 91
2019-10-12 22:00:00 22.1 2 Noroeste 6 Noroeste 0 1015.2 0.7 89
2019-10-12 21:00:00 22.4 3 Noroeste 7 Sudoeste 0 1015 0.6 88
2019-10-12 20:00:00 22.7 3 Sudoeste 8 Sur 0 1014.8 0.3 86
2019-10-12 19:00:00 23.7 4 Sudoeste 9 Sur 0 1014.5 0.1 80
2019-10-12 18:00:00 24.5 6 Sudoeste 12 Sur 0 1014.4 -0.5 77
2019-10-12 17:00:00 24.9 6 Sudoeste 16 Sur 0 1014.5 -0.9 75
2019-10-12 16:00:00 24.6 6 Sudoeste 18 Sur 0 1014.4 -1.8 75
2019-10-12 15:00:00 23.4 15 Sur 26 Sudeste 0 1014.9 -2.1 77
2019-10-12 14:00:00 25.1 19 Sudeste 33 Sudeste 0 1015.4 -1.5 71
2019-10-12 13:00:00 24.7 7 Sudeste 10 Sudeste 0 1016.2 0.2 68
2019-10-12 12:00:00 24.3 5 Sur 9 Sur 0 1017 1.6 69
2019-10-12 11:00:00 24.7 2 Sur 6 Este 0 1016.9 1.7 70
2019-10-12 10:00:00 20.9 3 Nordeste 7 Nordeste 0 1016 0.5 81
2019-10-12 09:00:00 19.3 5 Norte 8 Norte 0 1015.4 0.2 85
2019-10-12 08:00:00 19.8 3 Sudoeste 8 Norte 0 1015.2 0 85
2019-10-12 07:00:00 19.4 5 Nordeste 9 Nordeste 0 1015.5 -0.3 85
2019-10-12 06:00:00 19.6 2 Noroeste 6 Norte 0 1015.2 -1.4 89
2019-10-12 05:00:00 19.5 0 Calma 9 Nordeste 0 1015.2 -1.4 85
2019-10-12 04:00:00 19.9 4 Nordeste 9 Nordeste 0 1015.8 -1.3 86
2019-10-12 03:00:00 20.2 6 Oeste 12 Oeste 0 1016.6 -0.9 85
2019-10-12 02:00:00 20.5 0 Calma 9 Nordeste 0 1016.6 -0.8 85
2019-10-12 01:00:00 20.8 0 Calma 5 Este 0 1017.1 0.2 85
2019-10-12 00:00:00 20.2 3 Nordeste 7 Norte 0 1017.5 0.6 89
2019-10-11 23:00:00 20.9 3 Este 5 Nordeste 0 1017.4 0.9 89
2019-10-11 22:00:00 21.3 3 Nordeste 14 Sudoeste 0 1016.9 0.6 89
2019-10-11 21:00:00 21.9 5 Sudoeste 8 Sudoeste 0 1016.9 0.2 84
2019-10-11 20:00:00 22.3 2 Sur 10 Oeste 0 1016.5 -0.8 77
2019-10-11 19:00:00 22.7 5 Oeste 13 Oeste 0 1016.3 -1.4 77
2019-10-11 18:00:00 23.6 5 Oeste 14 Oeste 0 1016.7 -1.3 74
2019-10-11 17:00:00 23.1 7 Oeste 20 Oeste 0 1017.3 -1.4 74
2019-10-11 16:00:00 24.1 9 Sudoeste 22 Sudoeste 0 1017.7 -1.5 71
2019-10-11 15:00:00 23.4 11 Sudoeste 23 Sudoeste 0 1018 -1.4 76
2019-10-11 14:00:00 23.4 13 Sudoeste 26 Oeste 0 1018.7 -0.8 76
2019-10-11 13:00:00 23.3 16 Sudoeste 26 Sudoeste 0 1019.2 0.5 80
2019-10-11 12:00:00 23.4 8 Sudoeste 26 Oeste 0 1019.4 1.2 77
2019-10-11 11:00:00 23.1 8 Oeste 19 Oeste 0 1019.5 2 77
2019-10-11 10:00:00 23.8 0 Calma 9 Nordeste 0 1018.7 1.1 83
2019-10-11 09:00:00 19.4 2 Norte 6 Nordeste 0 1018.2 1 94
2019-10-11 08:00:00 19.4 4 Nordeste 7 Nordeste 0 1017.5 0.4 95
2019-10-11 07:00:00 19.6 5 Norte 9 Noroeste 0 1017.6 -0.1 94
2019-10-11 06:00:00 20.2 2 Sudeste 8 Nordeste 0 1017.2 -1.1 95
2019-10-11 05:00:00 20.4 4 Nordeste 6 Este 0 1017.1 -1.1 95
2019-10-11 04:00:00 20.8 4 Norte 6 Norte 0 1017.7 -1 95
2019-10-11 03:00:00 21.3 0 Calma 3 Noroeste 0 1018.3 -0.4 93
2019-10-11 02:00:00 21.5 0 Calma 4 Sudeste 0 1018.2 -0.3 91
2019-10-11 01:00:00 21.5 0 Calma 5 Nordeste 0 1018.7 0.8 91
2019-10-11 00:00:00 21.1 0 Calma 5 Norte 0 1018.7 1.3 91
2019-10-10 23:00:00 21.5 3 Nordeste 5 Nordeste 0 1018.5 1.5 90
2019-10-10 22:00:00 21.5 0 Calma 12 Este 0 1017.9 0.8 88
2019-10-10 21:00:00 22.2 8 Este 19 Este 0 1017.4 0.6 85
2019-10-10 20:00:00 23.1 12 Este 27 Este 0 1017 -0.1 80
2019-10-10 19:00:00 23.9 17 Este 29 Sudeste 0 1017.1 -0.2 76
2019-10-10 18:00:00 24.1 23 Sudeste 31 Este 0 1016.8 -1 76
2019-10-10 17:00:00 24.5 23 Sudeste 35 Sudeste 0 1017.1 -1 74
2019-10-10 16:00:00 24.2 22 Sudeste 27 Sudeste 0 1017.3 -1.6 77
2019-10-10 15:00:00 24.3 19 Sudeste 30 Sudeste 0 1017.8 -1.2 76
2019-10-10 14:00:00 24.6 12 Sudeste 19 Sur 0 1018.1 -0.8 71
2019-10-10 13:00:00 23.8 9 Sur 15 Sur 0 1018.9 0.6 74
2019-10-10 12:00:00 24.1 7 Sudoeste 14 Sudoeste 0 1019 1.5 73
2019-10-10 11:00:00 26 0 Calma 8 Sudoeste 0 1018.9 1.6 68
2019-10-10 10:00:00 24 2 Oeste 6 Noroeste 0 1018.3 1.4 73
2019-10-10 09:00:00 20.9 2 Norte 8 Norte 0 1017.5 0.8 83
2019-10-10 08:00:00 19.5 4 Nordeste 10 Norte 0 1017.3 0.9 88
2019-10-10 07:00:00 19.6 3 Noroeste 8 Norte 0 1016.9 0.2 88
2019-10-10 06:00:00 19.3 2 Nordeste 7 Nordeste 0 1016.7 0.4 89
2019-10-10 05:00:00 19.4 3 Nordeste 9 Nordeste 0 1016.4 0.3 88
2019-10-10 04:00:00 19.1 5 Norte 7 Norte 0 1016.7 0.4 88
2019-10-10 03:00:00 19.4 3 Nordeste 5 Nordeste 0 1016.3 0.3 90
2019-10-10 02:00:00 19.7 0 Calma 7 Nordeste 0 1016.1 0.1 88
2019-10-10 01:00:00 19.9 0 Calma 7 Norte 0 1016.3 0.9 85
2019-10-10 00:00:00 20.3 3 Nordeste 6 Nordeste 0 1016 1.1 83
2019-10-09 23:00:00 20.3 0 Calma 5 Nordeste 0 1016 1.3 85
2019-10-09 22:00:00 20.9 0 Calma 4 Nordeste 0 1015.4 0.9 84
2019-10-09 21:00:00 21.9 2 Sur 4 Noroeste 0 1014.9 0.6 77
2019-10-09 20:00:00 22.1 2 Sudoeste 8 Sudoeste 0 1014.7 0.4 76
2019-10-09 19:00:00 23.9 5 Sur 9 Sudoeste 0 1014.5 -0.3 70
2019-10-09 18:00:00 24 6 Sur 10 Sur 0 1014.3 -0.8 70
2019-10-09 17:00:00 25 6 Sur 12 Sur 0 1014.3 -1.5 66
2019-10-09 16:00:00 25 8 Sur 14 Sudeste 0 1014.8 -1.6 68
2019-10-09 15:00:00 24.9 8 Sur 12 Sur 0 1015.1 -1.4 68
2019-10-09 14:00:00 25.2 7 Sur 12 Sur 0 1015.8 -0.8 64
2019-10-09 13:00:00 23.8 8 Sur 11 Sur 0 1016.4 0 65
2019-10-09 12:00:00 23.5 6 Sur 10 Sur 0 1016.5 0.7 66
2019-10-09 11:00:00 24.3 4 Sur 7 Sudoeste 0 1016.6 1.1 62
2019-10-09 10:00:00 24.4 0 Calma 7 Nordeste 0 1016.4 1.2 67
2019-10-09 09:00:00 20.2 0 Calma 10 Norte 0 1015.8 0.5 78
2019-10-09 08:00:00 17.7 3 Nordeste 6 Nordeste 0 1015.5 0.3 83
2019-10-09 07:00:00 17.3 0 Calma 4 Nordeste 0 1015.2 -0.2 85
2019-10-09 06:00:00 17.5 2 Norte 4 Norte 0 1015.3 -0.5 83
2019-10-09 05:00:00 18.8 2 Nordeste 5 Norte 0 1015.2 -1.1 80
2019-10-09 04:00:00 18.9 3 Norte 6 Nordeste 0 1015.4 -1.4 77
2019-10-09 03:00:00 19.4 5 Norte 8 Norte 0 1015.8 -1.4 77
2019-10-09 02:00:00 19.5 2 Nordeste 5 Nordeste 0 1016.3 -0.2 76
2019-10-09 01:00:00 19.4 2 Nordeste 8 Nordeste 0 1016.8 0.5 75
2019-10-09 00:00:00 20.2 2 Norte 7 Noroeste 0 1017.2 1.1 73
2019-10-08 23:00:00 20.9 0 Calma 6 Noroeste 0 1016.5 0.5 71
2019-10-08 22:00:00 21.2 3 Norte 9 Noroeste 0 1016.3 0.3 68
2019-10-08 21:00:00 22.6 3 Noroeste 17 Sudeste 0 1016.1 0 60
2019-10-08 20:00:00 23.4 11 Este 23 Sudeste 0 1016 -0.7 57
2019-10-08 19:00:00 24.7 12 Sudeste 26 Sudeste 0 1016 -1 58
2019-10-08 18:00:00 24.1 19 Sudeste 31 Sudeste 0 1016.1 -0.8 66
2019-10-08 17:00:00 24.3 20 Sudeste 32 Sudeste 0 1016.7 -1 66
2019-10-08 16:00:00 24.6 23 Sudeste 33 Sudeste 0 1017 -1.5 70
2019-10-08 15:00:00 24.2 26 Sudeste 60 Sudeste 0 1016.9 -1.4 73
2019-10-08 14:00:00 24.9 26 Sudeste 36 Este 0 1017.7 -0.8 69
2019-10-08 13:00:00 24.7 24 Este 35 Este 0 1018.5 0.2 69
2019-10-08 12:00:00 25.9 20 Sudeste 27 Este 0 1018.3 0.7 58
2019-10-08 11:00:00 26 15 Este 22 Este 0 1018.5 1.6 58
2019-10-08 10:00:00 23.1 4 Oeste 8 Norte 0 1018.3 1.8 63
2019-10-08 09:00:00 20 3 Noroeste 7 Noroeste 0 1017.6 1.5 71
2019-10-08 08:00:00 19.7 2 Norte 10 Nordeste 0 1016.9 1 68
2019-10-08 07:00:00 19.2 0 Calma 8 Norte 0 1016.5 0.7 73
2019-10-08 06:00:00 19.3 4 Noroeste 16 Noroeste 0 1016.1 -0.1 73
2019-10-08 05:00:00 19.3 4 Noroeste 7 Nordeste 0 1015.9 -0.1 74
2019-10-08 04:00:00 20.3 5 Noroeste 10 Oeste 0 1015.8 -0.1 73
2019-10-08 03:00:00 21.1 2 Noroeste 10 Nordeste 0 1016.2 0.7 71
2019-10-08 02:00:00 21.4 2 Norte 11 Nordeste 0 1016 1.1 76
2019-10-08 01:00:00 21.9 3 Oeste 9 Norte 0 1015.9 1.4 75
2019-10-08 00:00:00 21.8 3 Nordeste 13 Sudeste 0 1015.5 1.3 81
2019-10-07 23:00:00 20.5 0 Calma 5 Este 0 1014.9 0.9 89
2019-10-07 22:00:00 21.4 0 Calma 5 Norte 0 1014.5 0.3 88
2019-10-07 21:00:00 22.1 0 Calma 4 Norte 0 1014.2 0.3 85
2019-10-07 20:00:00 23 0 Calma 8 Sudoeste 0 1014 0.2 80
2019-10-07 19:00:00 24.2 5 Sur 10 Sudoeste 0 1014.2 -0.3 77
2019-10-07 18:00:00 24.2 6 Sur 11 Sudoeste 0 1013.9 -0.6 81
2019-10-07 17:00:00 25.1 6 Sur 12 Sur 0 1013.8 -1.3 81
2019-10-07 16:00:00 24.9 6 Sur 11 Sur 0 1014.5 -0.5 74
2019-10-07 15:00:00 24.1 8 Sur 13 Sur 0 1014.5 -0.9 80
2019-10-07 14:00:00 23.7 7 Sur 14 Sudoeste 0 1015.1 -0.2 84
2019-10-07 13:00:00 23.8 7 Sur 11 Sur 0 1015 -0.2 81
2019-10-07 12:00:00 23.3 7 Sur 9 Sur 0 1015.4 0.8 82
2019-10-07 11:00:00 24.2 4 Sur 7 Sudoeste 0 1015.3 1 77
2019-10-07 10:00:00 23.6 0 Calma 8 Nordeste 0 1015.2 1.2 80
2019-10-07 09:00:00 19.3 0 Calma 5 Norte 0 1014.6 0.3 89
2019-10-07 08:00:00 18.4 4 Nordeste 9 Norte 0 1014.3 -0.3 87
2019-10-07 07:00:00 17.9 6 Norte 8 Norte 0 1014 -1 89
2019-10-07 06:00:00 18.7 5 Norte 9 Nordeste 0 1014.3 -1.2 80
2019-10-07 05:00:00 18 4 Norte 7 Norte 0 1014.6 -1 80
2019-10-07 04:00:00 19.5 6 Nordeste 9 Nordeste 0 1015 -1.1 76
2019-10-07 03:00:00 19.4 0 Calma 9 Nordeste 0 1015.5 -0.7 81
2019-10-07 02:00:00 18.5 6 Norte 9 Norte 0 1015.6 -0.6 89
2019-10-07 01:00:00 19.1 0 Calma 6 Norte 0 1016.1 0.1 90
2019-10-07 00:00:00 19.4 4 Norte 7 Nordeste 0 1016.2 0.6 89
2019-10-06 23:00:00 19.5 2 Norte 4 Norte 0 1016.2 0.6 90
2019-10-06 22:00:00 20.1 0 Calma 4 Noroeste 0 1016 0.2 90
2019-10-06 21:00:00 21.4 0 Calma 5 Nordeste 0 1015.6 0 90
2019-10-06 20:00:00 22 0 Calma 6 Sudoeste 0 1015.6 -0.3 88
2019-10-06 19:00:00 22.8 4 Sudoeste 9 Sur 0 1015.8 -0.2 88
2019-10-06 18:00:00 23.5 6 Sur 9 Sudeste 0 1015.6 -0.9 86
2019-10-06 17:00:00 23.1 8 Sur 11 Sudeste 0 1015.9 -0.9 87
2019-10-06 16:00:00 23.5 6 Sur 10 Sur 0 1016 -1.1 83
2019-10-06 15:00:00 23.9 6 Sur 11 Sur 0 1016.5 -0.7 83
2019-10-06 14:00:00 23.8 7 Sudeste 12 Sudeste 0 1016.8 -0.1 82
2019-10-06 13:00:00 23.2 7 Sudeste 11 Sudeste 0 1017.1 0.7 84
2019-10-06 12:00:00 23 7 Sur 26 Sudeste 0 1017.2 1.2 81
2019-10-06 11:00:00 23.3 7 Sudeste 9 Sudeste 0 1016.9 1.6 77
2019-10-06 10:00:00 23.9 0 Calma 3 Sudeste 0 1016.4 1.4 69
2019-10-06 09:00:00 17.8 2 Norte 7 Noroeste 0 1016 0.8 89
2019-10-06 08:00:00 16.7 5 Norte 9 Norte 0 1015.3 0.6 91
2019-10-06 07:00:00 16.9 4 Noroeste 8 Nordeste 0 1015 0 90
2019-10-06 06:00:00 16.6 4 Nordeste 7 Nordeste 0 1015.2 0.1 92
2019-10-06 05:00:00 17.1 0 Calma 5 Oeste 0 1014.7 -0.3 91
2019-10-06 04:00:00 17.2 3 Norte 6 Norte 0 1015 0.3 89
2019-10-06 03:00:00 17.4 0 Calma 8 Norte 0 1015.1 0.2 90
2019-10-06 02:00:00 17.7 3 Norte 7 Nordeste 0 1015 0.1 88
2019-10-06 01:00:00 19.4 5 Nordeste 9 Nordeste 0 1014.7 0.3 85
2019-10-06 00:00:00 19.4 6 Nordeste 8 Nordeste 0 1014.9 1.1 87
2019-10-05 23:00:00 19.4 2 Norte 6 Norte 0 1014.9 1.3 91
2019-10-05 22:00:00 20.1 0 Calma 6 Nordeste 0 1014.4 1.1 90
2019-10-05 21:00:00 21.3 3 Oeste 9 Oeste 0 1013.8 0.5 88
2019-10-05 20:00:00 21.9 3 Oeste 11 Noroeste 0 1013.6 0.2 75
2019-10-05 19:00:00 22.8 7 Oeste 14 Sudoeste 0 1013.3 -0.3 81
2019-10-05 18:00:00 23 8 Sudoeste 14 Sur 0 1013.3 -0.8 82
2019-10-05 17:00:00 23.1 8 Sur 15 Sur 0 1013.4 -1 78
2019-10-05 16:00:00 23.1 10 Sudoeste 15 Sur 0 1013.6 -1.2 81
2019-10-05 15:00:00 23.5 7 Sur 15 Sur 0 1014.1 -0.6 77
2019-10-05 14:00:00 23.5 9 Sur 13 Sur 0 1014.4 -0.1 81
2019-10-05 13:00:00 23.5 7 Sur 10 Sur 0 1014.8 0.6 77
2019-10-05 12:00:00 24.5 5 Sur 9 Sur 0 1014.7 0.8 68
2019-10-05 11:00:00 25.1 4 Sudeste 6 Sudeste 0 1014.5 1.2 60
2019-10-05 10:00:00 25.5 0 Calma 5 Norte 0 1014.2 1.5 54
2019-10-05 09:00:00 19.2 4 Norte 9 Norte 0 1013.9 1 73
2019-10-05 08:00:00 17 5 Norte 7 Norte 0 1013.3 0.3 74
2019-10-05 07:00:00 17.2 0 Calma 8 Norte 0 1012.7 -0.6 74
2019-10-05 06:00:00 17.5 6 Nordeste 9 Norte 0 1012.9 -0.7 73
2019-10-05 05:00:00 17 3 Nordeste 8 Nordeste 0 1013 -0.9 80
2019-10-05 04:00:00 16.9 4 Norte 7 Norte 0 1013.3 -1 85
2019-10-05 03:00:00 18.5 0 Calma 7 Nordeste 0 1013.6 -0.7 81
2019-10-05 02:00:00 18 3 Nordeste 7 Norte 0 1013.9 -0.7 93
2019-10-05 01:00:00 17.7 0 Calma 4 Nordeste 0 1014.3 -0.1 98
2019-10-05 00:00:00 19.2 0 Calma 5 Norte 0 1014.3 0.2 99
2019-10-04 23:00:00 19.9 3 Norte 4 Norte 0 1014.6 0.4 98
2019-10-04 22:00:00 20.7 2 Nordeste 7 Oeste 0 1014.4 0.3 98
2019-10-04 21:00:00 21.5 4 Sudoeste 8 Sudoeste 0 1014.1 -0.1 96
2019-10-04 20:00:00 22 3 Sudoeste 7 Sur 0 1014.2 -0.4 93
2019-10-04 19:00:00 23.9 3 Sudeste 9 Sur 0 1014.1 -0.8 85
2019-10-04 18:00:00 23.3 6 Sur 9 Sur 0 1014.2 -1.5 87
2019-10-04 17:00:00 23.4 6 Sur 10 Sur 0 1014.6 -1.7 86
2019-10-04 16:00:00 24.8 6 Sudeste 12 Sur 0 1014.9 -1.6 80
2019-10-04 15:00:00 23.8 8 Sur 15 Sur 0 1015.7 -0.7 84
2019-10-04 14:00:00 24.2 6 Sudeste 16 Sur 0 1016.3 -0.2 82
2019-10-04 13:00:00 23.3 14 Sudeste 21 Sudeste 0 1016.5 0.4 82
2019-10-04 12:00:00 23.5 14 Sudeste 21 Sudeste 0 1016.4 0.5 74
2019-10-04 11:00:00 23.9 8 Sudeste 13 Sudeste 0 1016.5 1.1 68
2019-10-04 10:00:00 25.5 0 Calma 6 Nordeste 0 1016.1 1 53
2019-10-04 09:00:00 20 3 Nordeste 6 Norte 0 1015.9 1 65
2019-10-04 08:00:00 18 3 Norte 6 Norte 0 1015.4 0.4 73
2019-10-04 07:00:00 18.7 3 Nordeste 9 Nordeste 0 1015.1 0.1 71
2019-10-04 06:00:00 17.6 0 Calma 8 Noroeste 0 1014.9 -0.9 77
2019-10-04 05:00:00 16.9 5 Norte 9 Norte 0 1015 -0.5 76
2019-10-04 04:00:00 17.4 0 Calma 8 Norte 0 1015 -0.8 77
2019-10-04 03:00:00 18.1 2 Noroeste 5 Noroeste 0 1015.8 0 83
2019-10-04 02:00:00 17.5 0 Calma 11 Nordeste 0 1015.5 -0.2 86
2019-10-04 01:00:00 19.1 3 Norte 9 Norte 0 1015.8 0.9 90
2019-10-04 00:00:00 19.6 2 Sudeste 10 Nordeste 0 1015.8 0.6 84
2019-10-03 23:00:00 19.5 0 Calma 9 Nordeste 0 1015.7 0.7 93
2019-10-03 22:00:00 20.4 4 Nordeste 8 Este 0 1014.9 -0.3 91
2019-10-03 21:00:00 21.4 2 Sudoeste 5 Sur 0 1015.2 -0.2 89
2019-10-03 20:00:00 21.8 5 Sur 9 Sur 0 1015 -0.5 86
2019-10-03 19:00:00 23 5 Sur 10 Sudoeste 0 1015.2 -0.4 81
2019-10-03 18:00:00 24 7 Sur 11 Sur 0 1015.4 -0.9 77
2019-10-03 17:00:00 24.4 6 Sur 12 Sudoeste 0 1015.5 -1.4 75
2019-10-03 16:00:00 25.2 6 Sudeste 10 Sur 0 1015.6 -1.5 69
2019-10-03 15:00:00 25 6 Sudeste 14 Sur 0 1016.3 -1.2 70
2019-10-03 14:00:00 23.7 10 Sudoeste 26 Sudoeste 0 1016.9 0.1 71
2019-10-03 13:00:00 23.5 8 Sudoeste 24 Oeste 0 1017.1 0.9 69
2019-10-03 12:00:00 23.7 10 Oeste 22 Sudoeste 0 1017.5 1.7 65
2019-10-03 11:00:00 27 5 Sudoeste 8 Sudoeste 0 1016.8 1.2 46
2019-10-03 10:00:00 26.8 0 Calma 5 Oeste 0 1016.2 0.8 48
2019-10-03 09:00:00 21.9 0 Calma 9 Norte 0 1015.8 0.6 60
2019-10-03 08:00:00 18.2 0 Calma 7 Sudeste 0 1015.6 0.5 76
2019-10-03 07:00:00 19.5 5 Sudoeste 9 Sudoeste 0 1015.4 0.1 77
2019-10-03 06:00:00 17.6 4 Norte 6 Norte 0 1015.2 -0.1 77
2019-10-03 05:00:00 18.1 3 Norte 9 Nordeste 0 1015.1 -0.1 75
2019-10-03 04:00:00 19.1 3 Nordeste 11 Sudoeste 0 1015.3 0.2 80
2019-10-03 03:00:00 19.4 0 Calma 10 Noroeste 0 1015.3 0.2 77
2019-10-03 02:00:00 20 6 Noroeste 9 Noroeste 0 1015.2 0.8 77
2019-10-03 01:00:00 19.9 3 Nordeste 10 Este 0 1015.1 1.7 77
2019-10-03 00:00:00 21.5 4 Noroeste 12 Oeste 0 1015.1 2.7 73
2019-10-02 23:00:00 22.1 5 Oeste 15 Oeste 0 1014.4 3.1 70
2019-10-02 22:00:00 22 11 Este 19 Sudeste 0 1013.4 2.6 80
2019-10-02 21:00:00 22.2 9 Sudeste 28 Sudeste 0 1012.4 1.7 79
2019-10-02 20:00:00 26 8 Sudeste 32 Oeste 0 1011.3 -0.4 51
2019-10-02 19:00:00 24.8 11 Oeste 35 Sudoeste 0 1010.8 -1.6 65
2019-10-02 18:00:00 25.4 16 Oeste 28 Oeste 0 1010.7 -2.1 66
2019-10-02 17:00:00 24.2 13 Oeste 31 Oeste 0 1011.7 -1.4 73
2019-10-02 16:00:00 23.8 15 Sudoeste 26 Sudoeste 0 1012.4 -0.9 70
2019-10-02 15:00:00 24.6 8 Sudoeste 32 Sudoeste 0 1012.8 -0.7 69
2019-10-02 14:00:00 25.1 12 Sudoeste 31 Sudoeste 0 1013.1 -0.6 67
2019-10-02 13:00:00 23.8 19 Sudoeste 34 Oeste 0 1013.3 0.5 68
2019-10-02 12:00:00 25.2 10 Oeste 26 Sudoeste 0 1013.5 1.2 64
2019-10-02 11:00:00 28.3 10 Norte 31 Norte 0 1013.7 1.9 40
2019-10-02 10:00:00 26.4 9 Noroeste 32 Norte 0 1012.8 1.4 43
2019-10-02 09:00:00 24.7 17 Norte 43 Norte 0 1012.3 1.3 45
2019-10-02 08:00:00 24.3 22 Norte 48 Norte 0 1011.8 0.6 45
2019-10-02 07:00:00 25 19 Norte 44 Norte 0 1011.4 0.3 43
2019-10-02 06:00:00 25.4 20 Norte 44 Norte 0 1011 -0.6 43
2019-10-02 05:00:00 25.6 6 Noroeste 29 Noroeste 0 1011.2 -0.3 41
2019-10-02 04:00:00 26.5 14 Noroeste 46 Noroeste 0 1011.1 -0.5 40
2019-10-02 03:00:00 27.1 19 Noroeste 40 Noroeste 0 1011.6 0.3 38
2019-10-02 02:00:00 27.8 18 Noroeste 36 Noroeste 0 1011.5 0.2 37
2019-10-02 01:00:00 27.5 16 Noroeste 38 Noroeste 0 1011.6 0.8 37
2019-10-02 00:00:00 29 18 Noroeste 51 Norte 0 1011.3 1.2 34
2019-10-01 23:00:00 29.1 12 Noroeste 25 Noroeste 0 1011.3 1.5 33
2019-10-01 22:00:00 29.6 17 Noroeste 42 Noroeste 0 1010.8 1.2 32
2019-10-01 21:00:00 27.2 16 Oeste 32 Oeste 0 1010.1 0.5 47
2019-10-01 20:00:00 24.9 21 Oeste 37 Oeste 0 1009.8 0.1 64
2019-10-01 19:00:00 25.1 17 Oeste 43 Sudoeste 0 1009.6 -1 66
2019-10-01 18:00:00 25 19 Oeste 46 Oeste 0 1009.6 -1.8 69
2019-10-01 17:00:00 26.6 19 Oeste 41 Oeste 0 1009.7 -2.3 53
2019-10-01 16:00:00 24.5 13 Sudoeste 29 Oeste 0 1010.6 -2 71
2019-10-01 15:00:00 25.2 7 Sudoeste 24 Sudoeste 0 1011.4 -1.5 71
2019-10-01 14:00:00 23.8 12 Sudoeste 23 Sudoeste 0 1012 -1.1 79
2019-10-01 13:00:00 23.4 12 Oeste 24 Sudoeste 0 1012.6 -0.3 74
2019-10-01 12:00:00 23.6 9 Oeste 18 Oeste 0 1012.9 0.4 75
2019-10-01 11:00:00 23.4 7 Oeste 13 Oeste 0 1013.1 1.3 70
2019-10-01 10:00:00 23.4 2 Nordeste 5 Noroeste 0 1012.9 1.1 72
2019-10-01 09:00:00 18.2 3 Noroeste 6 Noroeste 0 1012.5 0.8 80
2019-10-01 08:00:00 18.1 6 Nordeste 9 Norte 0 1011.8 -0.5 80
2019-10-01 07:00:00 18 0 Calma 5 Nordeste 0 1011.8 -1 85
2019-10-01 06:00:00 18.2 3 Nordeste 8 Nordeste 0 1011.7 -2 90
2019-10-01 05:00:00 18 2 Nordeste 6 Norte 0 1012.3 -1.5 95
2019-10-01 04:00:00 18.6 2 Norte 6 Nordeste 0 1012.8 -0.7 95
2019-10-01 03:00:00 19.6 4 Nordeste 7 Nordeste 0 1013.7 -0.2 95
2019-10-01 02:00:00 19.6 6 Norte 8 Nordeste 0 1013.8 -0.1 94
2019-10-01 01:00:00 19.8 5 Nordeste 8 Nordeste 0 1013.5 -0.1 94
2019-10-01 00:00:00 20 3 Nordeste 8 Nordeste 0 1013.9 0.5 95
2019-09-30 23:00:00 20.4 0 Calma 5 Este 0 1013.9 0.4 95
2019-09-30 22:00:00 21.3 0 Calma 6 Oeste 0 1013.6 0.4 94
2019-09-30 21:00:00 21.6 2 Noroeste 15 Sudoeste 0 1013.4 -0.7 93
2019-09-30 20:00:00 22.4 9 Sudoeste 17 Sudoeste 0 1013.5 -0.5 87
2019-09-30 19:00:00 23.8 0 Calma 17 Oeste 0 1013.2 -0.9 77
2019-09-30 18:00:00 23.1 7 Oeste 19 Sudoeste 0 1014.1 -0.7 84
2019-09-30 17:00:00 23.3 9 Sudoeste 17 Sur 0 1014 -1.8 85
2019-09-30 16:00:00 23.4 10 Sudoeste 17 Sudoeste 0 1014.1 -2 86
2019-09-30 15:00:00 22.8 11 Sur 17 Sudoeste 0 1014.8 -1.5 87
2019-09-30 14:00:00 23.8 11 Sudoeste 17 Sudoeste 0 1015.8 -0.4 85
2019-09-30 13:00:00 23.1 10 Sudoeste 18 Sudoeste 0 1016.1 0.1 85
2019-09-30 12:00:00 23 9 Sudoeste 14 Sur 0 1016.3 1.1 88
2019-09-30 11:00:00 24.6 5 Sur 9 Sudoeste 0 1016.2 1.4 77
2019-09-30 10:00:00 23.5 0 Calma 8 Norte 0 1016 1.4 70
2019-09-30 09:00:00 19.4 4 Norte 8 Nordeste 0 1015.2 0.6 75
2019-09-30 08:00:00 17.2 2 Norte 6 Nordeste 0 1014.8 0.1 91
2019-09-30 07:00:00 17.2 3 Nordeste 6 Nordeste 0 1014.6 -0.5 98
2019-09-30 06:00:00 17.3 3 Norte 5 Norte 0 1014.6 -1.3 98
2019-09-30 05:00:00 17.5 0 Calma 4 Norte 0 1014.7 -1.4 99
2019-09-30 04:00:00 18.1 0 Calma 5 Norte 0 1015.1 -1.2 99
2019-09-30 03:00:00 19.5 3 Noroeste 7 Nordeste 0 1015.9 -0.5 99
2019-09-30 02:00:00 19.5 0 Calma 4 Noroeste 0 1016.1 0.1 98
2019-09-30 01:00:00 20.2 3 Noroeste 5 Noroeste 0 1016.3 0.2 98
2019-09-30 00:00:00 20.3 0 Calma 7 Nordeste 0 1016.4 0.7 96
2019-09-29 23:00:00 21.1 4 Nordeste 9 Noroeste 0 1016 0.4 96
2019-09-29 22:00:00 21.6 4 Noroeste 23 Oeste 0 1016.1 0.6 95
2019-09-29 21:00:00 22.1 4 Oeste 11 Oeste 0 1015.7 -0.1 91
2019-09-29 20:00:00 23 5 Oeste 14 Oeste 0 1015.6 -0.7 86
2019-09-29 19:00:00 24.3 7 Sudoeste 14 Sudoeste 0 1015.5 -1.2 77
2019-09-29 18:00:00 24.5 8 Sudoeste 14 Sur 0 1015.8 -1.4 77
2019-09-29 17:00:00 24.4 8 Sur 13 Sudoeste 0 1016.3 -1.9 76
2019-09-29 16:00:00 25.1 7 Sur 15 Sur 0 1016.7 -1.8 75
2019-09-29 15:00:00 25.1 8 Sur 14 Sur 0 1017.2 -1.6 75
2019-09-29 14:00:00 24.6 8 Sur 13 Sudoeste 0 1018.2 -0.4 77
2019-09-29 13:00:00 25.4 6 Sudoeste 11 Sudoeste 0 1018.5 0.5 73
2019-09-29 12:00:00 24.7 5 Sur 9 Sur 0 1018.8 1.5 75
2019-09-29 11:00:00 23.3 0 Calma 6 Oeste 0 1018.6 2 75
2019-09-29 10:00:00 22.5 0 Calma 8 Este 0 1018 2.1 80
2019-09-29 09:00:00 19.5 5 Norte 7 Norte 0 1017.3 1.1 87
2019-09-29 08:00:00 19.3 0 Calma 8 Norte 0 1016.6 -0.3 88
2019-09-29 07:00:00 17.7 0 Calma 4 Norte 0 1015.9 -1.4 86
2019-09-29 06:00:00 18.1 0 Calma 5 Norte 0 1016.2 -1.4 89
2019-09-29 05:00:00 19.3 2 Noroeste 7 Norte 0 1016.9 -0.9 88
2019-09-29 04:00:00 20.2 3 Sudeste 4 Sudeste 0 1017.3 -0.7 86
2019-09-29 03:00:00 19.5 0 Calma 7 Norte 0 1017.6 -0.7 86
2019-09-29 02:00:00 19.7 0 Calma 7 Nordeste 0 1017.8 -0.3 85
2019-09-29 01:00:00 19.8 4 Nordeste 8 Nordeste 0 1018 0.3 88
2019-09-29 00:00:00 20.2 0 Calma 5 Noroeste 0 1018.3 1.3 91
2019-09-28 23:00:00 20.7 2 Noroeste 6 Noroeste 0 1018.1 1.5 94
2019-09-28 22:00:00 21.4 0 Calma -- -- 0 1017.7 1.1 94
2019-09-28 21:00:00 21.9 0 Calma 5 Sur 0 1017 0.5 93
2019-09-28 20:00:00 23.3 3 Sur 8 Sudoeste 0 1016.6 -0.2 88
2019-09-28 19:00:00 24.3 5 Sudoeste 11 Sudoeste 0 1016.6 -0.7 80
2019-09-28 18:00:00 24.9 6 Sur 11 Sudoeste 0 1016.5 -1.1 77
2019-09-28 17:00:00 24.3 6 Sur 12 Sur 0 1016.8 -1.4 80
2019-09-28 16:00:00 24.4 6 Sur 15 Sudoeste 0 1017.3 -1.5 81
2019-09-28 15:00:00 24 7 Sur 13 Sur 0 1017.6 -1.4 84
2019-09-28 14:00:00 24.5 6 Sur 12 Sur 0 1018.2 -0.5 77
2019-09-28 13:00:00 25.4 6 Sudeste 10 Sudeste 0 1018.8 0.7 76
2019-09-28 12:00:00 25.3 7 Sudeste 10 Sudeste 0 1019 1.7 76
2019-09-28 11:00:00 25.7 4 Sudeste 7 Sudeste 0 1018.7 2.2 76
2019-09-28 10:00:00 24.8 0 Calma 7 Nordeste 0 1018.1 2.1 74
2019-09-28 09:00:00 19.8 0 Calma 6 Norte 0 1017.3 1.5 91
2019-09-28 08:00:00 17.8 4 Norte 6 Norte 0 1016.5 0.8 97
2019-09-28 07:00:00 18 0 Calma 4 Norte 0 1016 -0.2 98
2019-09-28 06:00:00 18.3 2 Norte 6 Norte 0 1015.8 -0.9 98
2019-09-28 05:00:00 18.8 0 Calma 5 Norte 0 1015.7 -1.5 98
2019-09-28 04:00:00 19.5 3 Norte 7 Nordeste 0 1016.2 -1.4 97
2019-09-28 03:00:00 19.6 5 Nordeste 8 Nordeste 0 1016.7 -0.7 98
2019-09-28 02:00:00 19.8 4 Nordeste 6 Norte 0 1017.2 -0.4 98
2019-09-28 01:00:00 19.8 2 Norte 5 Norte 0 1017.6 0.6 96
2019-09-28 00:00:00 20.2 3 Nordeste 6 Nordeste 0 1017.4 1 96
2019-09-27 23:00:00 21.1 0 Calma 5 Norte 0 1017.6 1.8 96
2019-09-27 22:00:00 21.5 2 Noroeste 10 Oeste 0 1017 1.2 94
2019-09-27 21:00:00 21.8 5 Oeste 11 Oeste 0 1016.4 0.7 93
2019-09-27 20:00:00 22.1 7 Oeste 13 Sudoeste 0 1015.8 -0.1 90
2019-09-27 19:00:00 23.5 6 Oeste 15 Sur 0 1015.8 -0.8 84
2019-09-27 18:00:00 23.4 9 Sudoeste 17 Sudoeste 0 1015.7 -1.7 84
2019-09-27 17:00:00 23.2 9 Sudoeste 17 Sur 0 1015.9 -2.1 85
2019-09-27 16:00:00 23.1 9 Sudoeste 20 Sur 0 1016.6 -1.7 84
2019-09-27 15:00:00 22.9 9 Sudoeste 16 Sudoeste 0 1017.4 -1.2 83
2019-09-27 14:00:00 23.9 7 Sur 15 Sudoeste 0 1018 -0.2 81
2019-09-27 13:00:00 23.2 7 Sudoeste 13 Sudoeste 0 1018.3 0.3 81
2019-09-27 12:00:00 23.4 6 Sur 12 Sudoeste 0 1018.6 1 81
2019-09-27 11:00:00 23.5 5 Sur 9 Sur 0 1018.2 1.2 80
2019-09-27 10:00:00 23.3 0 Calma 6 Nordeste 0 1018 1.1 92
2019-09-27 09:00:00 19.9 0 Calma 6 Noroeste 0 1017.6 0.9 98
2019-09-27 08:00:00 18.7 4 Noroeste 7 Noroeste 0 1017 0.1 99
2019-09-27 07:00:00 19.1 0 Calma 4 Este 0 1016.9 -0.4 98
2019-09-27 06:00:00 19.5 0 Calma 4 Norte 0 1016.7 -0.9 98
2019-09-27 05:00:00 19.6 3 Norte 5 Norte 0 1016.9 -1.1 98
2019-09-27 04:00:00 19.5 0 Calma 3 Nordeste 0 1017.3 -0.9 98
2019-09-27 03:00:00 20.1 0 Calma 4 Sudeste 0 1017.6 -0.6 98
2019-09-27 02:00:00 20.3 0 Calma 4 Noroeste 0 1018 0.2 98
2019-09-27 01:00:00 20.7 2 Norte 6 Norte 0 1018.2 1 98
2019-09-27 00:00:00 21.1 0 Calma 4 Este 0 1018.2 1.5 98
2019-09-26 23:00:00 21.7 0 Calma 5 Sur 0 1017.8 1.4 98
2019-09-26 22:00:00 22.1 2 Noroeste 5 Noroeste 0 1017.2 0.9 97
2019-09-26 21:00:00 22.1 0 Calma 6 Sudoeste 0 1016.7 0.5 96
2019-09-26 20:00:00 22.9 2 Sudoeste 9 Sur 0 1016.4 0 95
2019-09-26 19:00:00 23 6 Sur 11 Sur 0 1016.3 -0.6 94
2019-09-26 18:00:00 24.1 8 Sur 12 Sudeste 0 1016.2 -0.7 89
2019-09-26 17:00:00 24.6 8 Sur 15 Sur 0 1016.4 -1.3 86
2019-09-26 16:00:00 24 10 Sur 23 Sur 0 1016.9 -1.1 87
2019-09-26 15:00:00 24.5 14 Sudeste 26 Sudeste 0 1016.9 -1.1 82
2019-09-26 14:00:00 23.7 12 Sur 19 Sudeste 0 1017.7 -0.1 83
2019-09-26 13:00:00 24.6 16 Sudeste 26 Sudeste 0 1018 0.8 77
2019-09-26 12:00:00 24.7 18 Sudeste 24 Sudeste 0 1018 1.3 77
2019-09-26 11:00:00 27 2 Sudoeste 8 Sur 0 1017.8 1.7 61
2019-09-26 10:00:00 28.7 0 Calma 3 Este 0 1017.2 1.6 50
2019-09-26 09:00:00 21.9 0 Calma 5 Noroeste 0 1016.7 1.5 71
2019-09-26 08:00:00 19.2 3 Norte 7 Nordeste 0 1016.1 1.2 76
2019-09-26 07:00:00 19.7 0 Calma 5 Noroeste 0 1015.6 1 77
2019-09-26 06:00:00 19.3 5 Norte 7 Noroeste 0 1015.2 0.7 83
2019-09-26 05:00:00 19.4 0 Calma 6 Sudeste 0 1014.9 0.3 80
2019-09-26 04:00:00 20.5 0 Calma 7 Norte 0 1014.6 0 81
2019-09-26 03:00:00 21.3 2 Norte 6 Norte 0 1014.5 0.3 84
2019-09-26 02:00:00 21.4 4 Norte 12 Este 0 1014.6 1.3 81
2019-09-26 01:00:00 22.8 4 Este 20 Sudeste 0 1014.6 1.4 77
2019-09-26 00:00:00 23.2 4 Sudeste 17 Sudeste 0 1014.2 1.6 76
2019-09-25 23:00:00 22 2 Sudoeste 13 Sudeste 0 1013.3 1 90
2019-09-25 22:00:00 22.9 0 Calma 5 Este 0 1013.2 0.8 77
2019-09-25 21:00:00 23.3 0 Calma 6 Sur 0 1012.6 0.1 76
2019-09-25 20:00:00 24.6 3 Sur 12 Sudeste 0 1012.3 -0.4 71
2019-09-25 19:00:00 26 5 Sur 13 Oeste 0 1012.4 -0.8 66
2019-09-25 18:00:00 27.1 5 Este 10 Sur 0 1012.5 -1.4 67
2019-09-25 17:00:00 26.2 6 Sur 13 Sudoeste 0 1012.7 -1.6 70
2019-09-25 16:00:00 25 8 Sudoeste 14 Sudoeste 0 1013.2 -1.5 75
2019-09-25 15:00:00 23.3 11 Sur 17 Sudoeste 0 1013.9 -1.2 85
2019-09-25 14:00:00 25.7 6 Sudeste 15 Sudeste 0 1014.3 -0.3 77
2019-09-25 13:00:00 25.8 8 Sudeste 11 Sudeste 0 1014.7 0.2 74
2019-09-25 12:00:00 25.5 6 Sudeste 12 Sudeste 0 1015.1 1.3 76
2019-09-25 11:00:00 23.9 8 Sudeste 12 Sudeste 0 1014.6 1.1 80
2019-09-25 10:00:00 23.4 4 Sudeste 10 Sudeste 0 1014.5 1.3 80
2019-09-25 09:00:00 19.9 0 Calma 9 Sudeste 0 1013.8 0.3 99
2019-09-25 08:00:00 19.1 4 Sudoeste 10 Norte 0 1013.5 0.3 99
2019-09-25 07:00:00 18.5 0 Calma 8 Nordeste 0 1013.2 -0.3 98
2019-09-25 06:00:00 18 3 Nordeste 7 Nordeste 0 1013.5 -0.7 95
2019-09-25 05:00:00 18.2 0 Calma 6 Norte 0 1013.2 -0.9 94
2019-09-25 04:00:00 19 3 Norte 6 Norte 0 1013.5 -1.3 91
2019-09-25 03:00:00 19.5 4 Nordeste 8 Nordeste 0 1014.2 -0.8 88
2019-09-25 02:00:00 19.5 5 Nordeste 9 Norte 0 1014.1 -1 83
2019-09-25 01:00:00 19.6 3 Nordeste 7 Nordeste 0 1014.8 -0.4 81
2019-09-25 00:00:00 20 0 Calma 6 Norte 0 1015 0 85
2019-09-24 23:00:00 20.5 4 Norte 7 Norte 0 1015.1 0.1 88
2019-09-24 22:00:00 21.4 3 Noroeste 10 Oeste 0 1015.2 -0.1 85
2019-09-24 21:00:00 21.8 5 Sudoeste 10 Sudoeste 0 1015 -0.6 82
2019-09-24 20:00:00 23.4 4 Oeste 8 Oeste 0 1015 -0.9 60
2019-09-24 19:00:00 23.8 5 Sur 13 Sudoeste 0 1015.3 -1.3 70
2019-09-24 18:00:00 23.1 8 Sudoeste 16 Sudoeste 0 1015.6 -1.5 77
2019-09-24 17:00:00 23.6 10 Sudoeste 18 Sur 0 1015.9 -1.9 76
2019-09-24 16:00:00 24 10 Sudoeste 17 Sudoeste 0 1016.6 -1.7 74
2019-09-24 15:00:00 24 10 Sudoeste 17 Sudoeste 0 1017.1 -1.3 69
2019-09-24 14:00:00 23.8 10 Sur 16 Sudoeste 0 1017.8 -0.5 69
2019-09-24 13:00:00 23.9 9 Sudoeste 15 Sudoeste 0 1018.3 0.4 71
2019-09-24 12:00:00 23.3 10 Sudoeste 17 Sudoeste 0 1018.4 0.8 77
2019-09-24 11:00:00 22.9 12 Sudoeste 18 Sudoeste 0 1018.3 0.7 63
2019-09-24 10:00:00 25.5 0 Calma 6 Nordeste 0 1017.9 0.3 58
2019-09-24 09:00:00 20 2 Norte 6 Norte 0 1017.6 0 77
2019-09-24 08:00:00 17.8 0 Calma 5 Norte 0 1017.6 0 84
2019-09-24 07:00:00 18.5 0 Calma 5 Norte 0 1017.6 -0.2 83
2019-09-24 06:00:00 17.3 0 Calma 5 Nordeste 0 1017.6 -0.6 85
2019-09-24 05:00:00 17.8 0 Calma 5 Nordeste 0 1017.6 -0.9 86
2019-09-24 04:00:00 18.4 2 Nordeste 5 Nordeste 0 1017.8 -1.1 88
2019-09-24 03:00:00 19 3 Norte 7 Nordeste 0 1018.2 -0.8 86
2019-09-24 02:00:00 19.7 3 Este 7 Nordeste 0 1018.5 -0.1 83
2019-09-24 01:00:00 19.6 4 Nordeste 6 Nordeste 0 1018.9 0.5 84
2019-09-24 00:00:00 20.2 0 Calma 5 Norte 0 1019 1.1 83
2019-09-23 23:00:00 20.2 0 Calma 4 Norte 0 1018.6 1 86
2019-09-23 22:00:00 21.2 4 Sudeste 4 Sudeste 0 1018.4 1.1 84
2019-09-23 21:00:00 21.9 0 Calma 7 Sudoeste 0 1017.9 0.8 77
2019-09-23 20:00:00 22.8 4 Sur 9 Sur 0 1017.6 0.4 76
2019-09-23 19:00:00 24.1 5 Sur 10 Sur 0 1017.3 -0.2 74
2019-09-23 18:00:00 24.4 6 Sur 12 Sudoeste 0 1017.1 -0.5 70
2019-09-23 17:00:00 24.7 7 Sur 13 Sudoeste 0 1017.2 -0.7 63
2019-09-23 16:00:00 23.9 8 Sudoeste 14 Sur 0 1017.5 -0.9 69
2019-09-23 15:00:00 23.6 9 Sur 18 Sur 0 1017.6 -0.3 76
2019-09-23 14:00:00 23.3 12 Sur 26 Sudeste 0 1017.9 0 80
2019-09-23 13:00:00 23.9 21 Sudeste 30 Sudeste 0 1018.4 1.1 76
2019-09-23 12:00:00 26.9 16 Este 24 Sudeste 0 1017.9 1.3 60
2019-09-23 11:00:00 24.5 12 Sudeste 17 Sudeste 0 1017.9 1.4 71
2019-09-23 10:00:00 25.3 3 Sudeste 9 Sudeste 0 1017.3 1.8 55
2019-09-23 09:00:00 23.3 0 Calma 10 Este 0 1016.6 1.6 57
2019-09-23 08:00:00 20.7 4 Nordeste 10 Sudeste 0 1016.5 2 60
2019-09-23 07:00:00 22 4 Sudeste 13 Norte 0 1015.5 1.1 59
2019-09-23 06:00:00 22.9 6 Norte 20 Norte 0 1015 0.5 54
2019-09-23 05:00:00 23.3 9 Noroeste 30 Norte 0 1014.5 -0.2 54
2019-09-23 04:00:00 23.5 13 Norte 30 Norte 0 1014.4 -0.5 53
2019-09-23 03:00:00 23.6 12 Norte 28 Noroeste 0 1014.5 -0.2 51
2019-09-23 02:00:00 24.2 9 Norte 22 Noroeste 0 1014.7 0.3 49
2019-09-23 01:00:00 24.6 10 Noroeste 26 Norte 0 1014.9 0.7 48
2019-09-23 00:00:00 22.1 5 Noroeste 12 Noroeste 0 1014.7 1 72
2019-09-22 23:00:00 21.4 0 Calma 6 Este 0 1014.4 1.3 86
2019-09-22 22:00:00 21.8 2 Nordeste 12 Oeste 0 1014.2 1.6 81
2019-09-22 21:00:00 23 10 Oeste 23 Oeste 0 1013.7 1.5 77
2019-09-22 20:00:00 23 13 Oeste 55 Oeste 0 1013.1 0.7 76
2019-09-22 19:00:00 23.8 21 Oeste 48 Sudoeste 0 1012.6 -0.2 74
2019-09-22 18:00:00 24.2 21 Oeste 49 Sudoeste 0 1012.2 -0.6 76
2019-09-22 17:00:00 23.8 24 Sudoeste 46 Sudoeste 0 1012.4 -0.9 82
2019-09-22 16:00:00 24.5 18 Sudoeste 44 Sudoeste 0 1012.8 -1 82
2019-09-22 15:00:00 23.9 19 Oeste 36 Oeste 0 1012.8 -1.2 82
2019-09-22 14:00:00 24.1 14 Oeste 30 Oeste 0 1013.3 -0.6 82
2019-09-22 13:00:00 23.6 13 Oeste 31 Oeste 0 1013.8 0.2 84
2019-09-22 12:00:00 23.6 14 Sudoeste 27 Oeste 0 1014 0.9 80
2019-09-22 11:00:00 23.1 13 Sudoeste 27 Sudoeste 0 1013.9 1.1 82
2019-09-22 10:00:00 22.8 7 Oeste 16 Sudoeste 0 1013.6 1.1 71
2019-09-22 09:00:00 20.1 4 Noroeste 7 Noroeste 0 1013.1 1.2 91
2019-09-22 08:00:00 19.4 4 Norte 8 Norte 0 1012.8 0.7 95
2019-09-22 07:00:00 20.1 0 Calma 17 Oeste 0 1012.5 -0.3 89
2019-09-22 06:00:00 21 5 Oeste 14 Oeste 0 1011.9 -1 93
2019-09-22 05:00:00 20.3 0 Calma 6 Sudoeste 0 1012.1 -1 96
2019-09-22 04:00:00 20.9 2 Noroeste 5 Noroeste 0 1012.8 -0.2 95
2019-09-22 03:00:00 21.4 3 Noroeste 12 Oeste 0 1012.9 0 94
2019-09-22 02:00:00 21.9 3 Oeste 11 Oeste 0 1013.1 -0.1 91
2019-09-22 01:00:00 21.7 5 Noroeste 14 Oeste 0 1013 0.3 92
2019-09-22 00:00:00 22 5 Oeste 16 Oeste 0 1012.9 1 92
2019-09-21 23:00:00 22.2 6 Oeste 14 Oeste 0 1013.2 1.4 94
2019-09-21 22:00:00 22.4 7 Oeste 16 Oeste 0 1012.7 1 95
2019-09-21 21:00:00 22.9 2 Noroeste 8 Noroeste 0 1011.9 0 95
2019-09-21 20:00:00 23.1 4 Oeste 13 Sudoeste 0 1011.8 -0.4 94
2019-09-21 19:00:00 23.9 3 Oeste 12 Sur 0 1011.7 -0.8 91
2019-09-21 18:00:00 24.4 5 Sur 15 Sudoeste 0 1011.9 -0.7 89
2019-09-21 17:00:00 24 7 Sudoeste 18 Sudoeste 0 1012.2 -1.1 90
2019-09-21 16:00:00 24 11 Sudoeste 19 Oeste 0 1012.5 -0.9 91
2019-09-21 15:00:00 24.8 9 Sudoeste 17 Sudoeste 0 1012.6 -1.2 87
2019-09-21 14:00:00 25 7 Sudoeste 14 Oeste 0 1013.3 0.1 81
2019-09-21 13:00:00 24.7 6 Sur 10 Sur 0 1013.4 0.6 82
2019-09-21 12:00:00 24.8 8 Sur 11 Sur 0 1013.8 1.8 80
2019-09-21 11:00:00 24.6 3 Sur 6 Sudoeste 0 1013.2 1.6 83
2019-09-21 10:00:00 24.1 0 Calma 6 Norte 0 1012.8 1.3 86
2019-09-21 09:00:00 22.3 4 Nordeste 7 Nordeste 0 1012 0.5 92
2019-09-21 08:00:00 21.7 0 Calma 4 Este 0 1011.6 0 95
2019-09-21 07:00:00 21.7 3 Norte 8 Nordeste 0 1011.5 -0.2 96
2019-09-21 06:00:00 21.6 3 Nordeste 7 Nordeste 0 1011.5 -0.5 98
2019-09-21 05:00:00 22 0 Calma 8 Norte 0 1011.6 -0.9 98
2019-09-21 04:00:00 21.9 4 Nordeste 6 Nordeste 0 1011.7 -1.4 97
2019-09-21 03:00:00 22.5 0 Calma 9 Oeste 0 1012 -1.8 96
2019-09-21 02:00:00 23 4 Noroeste 8 Noroeste 0 1012.5 -1.2 95
2019-09-21 01:00:00 23.4 0 Calma 5 Sudeste 0 1013.1 -0.2 94
2019-09-21 00:00:00 23.5 4 Sur 11 Sur 0 1013.8 1.1 91
2019-09-20 23:00:00 23.8 5 Sur 12 Sudoeste 0 1013.7 1.7 89
2019-09-20 22:00:00 24 3 Sudoeste 8 Sudoeste 0 1013.3 0.2 86
2019-09-20 21:00:00 24 4 Sur 18 Sur 0 1012.7 0.3 86
2019-09-20 20:00:00 24.4 5 Sudeste 8 Sur 0 1012 -0.7 84
2019-09-20 19:00:00 24.5 4 Sudoeste 19 Sur 0 1013.1 0.3 84
2019-09-20 18:00:00 24 10 Sur 16 Sur 0 1012.4 -0.7 86
2019-09-20 17:00:00 24.8 6 Sur 15 Sur 0 1012.7 -1 85
2019-09-20 16:00:00 24.1 13 Sur 18 Sur 0 1012.8 -1.4 86
2019-09-20 15:00:00 26.1 15 Sudeste 22 Sudeste 0 1013.1 -1.7 75
2019-09-20 14:00:00 26.4 16 Sudeste 27 Este 0 1013.7 -1.4 74
2019-09-20 13:00:00 25.4 17 Sudeste 27 Este 0 1014.2 -0.6 77
2019-09-20 12:00:00 24.5 20 Sudeste 28 Sudeste 0 1014.8 0.7 85
2019-09-20 11:00:00 24.6 3 Sudeste 5 Este 0 1015.1 2 82
2019-09-20 10:00:00 23.5 2 Este 7 Este 0 1014.8 2.6 88
2019-09-20 09:00:00 21.8 5 Nordeste 8 Nordeste 0 1014.1 1.7 91
2019-09-20 08:00:00 21.6 0 Calma 9 Sudoeste 0 1013.1 -0.4 89
2019-09-20 07:00:00 22.5 8 Sur 14 Sudeste 0 1012.2 -2.7 88
2019-09-20 06:00:00 21.9 5 Norte 9 Nordeste 0 1012.4 -2.9 89
2019-09-20 05:00:00 23.4 13 Este 23 Este 0 1013.5 -1.8 88
2019-09-20 04:00:00 23.4 9 Este 19 Este 0 1014.9 -0.2 90
2019-09-20 03:00:00 23.4 11 Sudeste 17 Sudeste 0 1015.3 0.7 90
2019-09-20 02:00:00 22.3 3 Norte 7 Norte 0 1015.3 0.7 87
2019-09-20 01:00:00 23 3 Sudoeste 8 Sudoeste 0 1015.1 0.3 85
2019-09-20 00:00:00 22 2 Norte 6 Norte 0 1014.6 0.5 86
2019-09-19 23:00:00 22.1 0 Calma 4 Sudeste 0 1014.6 0.6 91
2019-09-19 22:00:00 22.6 0 Calma 5 Nordeste 0 1014.8 1.1 91
2019-09-19 21:00:00 22.8 0 Calma 4 Sudeste 0 1014.1 0.4 91
2019-09-19 20:00:00 23.5 0 Calma 8 Sur 0 1014 0.2 86
2019-09-19 19:00:00 24.3 6 Sur 11 Sur 0 1013.7 -0.6 86
2019-09-19 18:00:00 24.3 8 Sur 13 Sur 0 1013.7 -1.2 85
2019-09-19 17:00:00 25 8 Sur 13 Sur 0 1013.8 -1.6 80
2019-09-19 16:00:00 24.6 9 Sur 12 Sur 0 1014.3 -1.3 81
2019-09-19 15:00:00 24.4 9 Sur 15 Sur 0 1014.9 -1 83
2019-09-19 14:00:00 25.3 12 Sudeste 16 Sudeste 0 1015.4 -0.2 80
2019-09-19 13:00:00 25.8 8 Sudeste 13 Sudeste 0 1015.6 0.6 77
2019-09-19 12:00:00 24.5 6 Sur 10 Sur 0 1015.9 1.6 84
2019-09-19 11:00:00 25.9 4 Sudeste 7 Sur 0 1015.6 1.7 75
2019-09-19 10:00:00 26 0 Calma 6 Norte 0 1015 1.5 71
2019-09-19 09:00:00 20.6 3 Este 5 Este 0 1014.3 0.7 94
2019-09-19 08:00:00 19.5 0 Calma 5 Norte 0 1013.9 -0.3 96
2019-09-19 07:00:00 19.6 0 Calma 3 Norte 0 1013.5 -1 95
2019-09-19 06:00:00 19.8 0 Calma 4 Norte 0 1013.6 -1.2 96
2019-09-19 05:00:00 20.1 2 Norte 6 Nordeste 0 1014.2 -0.8 96
2019-09-19 04:00:00 20.4 2 Nordeste 5 Norte 0 1014.5 -0.4 96
2019-09-19 03:00:00 20.7 2 Norte 5 Noroeste 0 1014.8 -0.1 96
2019-09-19 02:00:00 20.6 3 Norte 5 Norte 0 1015 0.3 96
2019-09-19 01:00:00 21.3 3 Nordeste 10 Nordeste 0 1014.9 0.5 96
2019-09-19 00:00:00 21.8 0 Calma 4 Sur 0 1014.9 0.8 95
2019-09-18 23:00:00 22.2 2 Oeste 5 Sudoeste 0 1014.7 1.2 94
2019-09-18 22:00:00 22.3 2 Noroeste 9 Sudoeste 0 1014.4 1.3 93
2019-09-18 21:00:00 22.3 4 Sudoeste 11 Sudoeste 0 1014.1 0.6 94
2019-09-18 20:00:00 22.9 6 Oeste 16 Sudoeste 0 1013.5 -0.1 93
2019-09-18 19:00:00 24.2 6 Sudoeste 16 Sudoeste 0 1013.1 -1 85
2019-09-18 18:00:00 24.5 9 Sudoeste 17 Sur 0 1013.5 -0.8 82
2019-09-18 17:00:00 25 6 Oeste 22 Sudoeste 0 1013.6 -0.9 77
2019-09-18 16:00:00 24.3 12 Sudoeste 21 Sudoeste 0 1014.1 -1 87
2019-09-18 15:00:00 25.2 10 Sudoeste 20 Sudoeste 0 1014.3 -0.6 80
2019-09-18 14:00:00 25.1 11 Sudoeste 20 Sudoeste 0 1014.5 -0.2 76
2019-09-18 13:00:00 23.9 11 Sudoeste 17 Oeste 0 1015.1 0.9 80
2019-09-18 12:00:00 23.9 10 Sudoeste 17 Sudoeste 0 1014.9 1.3 82
2019-09-18 11:00:00 24.1 10 Sudoeste 17 Sudoeste 0 1014.7 1.5 77
2019-09-18 10:00:00 24.1 6 Sudoeste 10 Sudoeste 0 1014.2 1.2 74
2019-09-18 09:00:00 22.3 3 Norte 8 Nordeste 0 1013.6 0.6 83
2019-09-18 08:00:00 20.5 3 Nordeste 6 Norte 0 1013.2 0 93
2019-09-18 07:00:00 20.7 0 Calma 7 Noroeste 0 1013 -0.5 91
2019-09-18 06:00:00 21.5 0 Calma 7 Norte 0 1013 -1 93
2019-09-18 05:00:00 21.2 2 Oeste 5 Oeste 0 1013.2 -0.7 96
2019-09-18 04:00:00 21.7 0 Calma 6 Norte 0 1013.5 -0.8 95
2019-09-18 03:00:00 22 0 Calma 5 Noroeste 0 1014 -0.5 95
2019-09-18 02:00:00 21.8 0 Calma 6 Norte 0 1013.9 -0.2 94
2019-09-18 01:00:00 22.1 3 Noroeste 5 Noroeste 0 1014.3 0.8 93
2019-09-18 00:00:00 23 0 Calma 6 Este 0 1014.5 1.3 92
2019-09-17 23:00:00 23.3 3 Oeste 8 Oeste 0 1014.1 1 92
2019-09-17 22:00:00 23.4 0 Calma 7 Oeste 0 1013.5 0.4 92
2019-09-17 21:00:00 23.6 2 Oeste 14 Oeste 0 1013.2 0 92
2019-09-15 18:00:00 26.8 8 Sudoeste 16 Sur 0 1015.7 -1 71
2019-09-15 17:00:00 27.1 8 Sudoeste 18 Sudoeste 0 1016 -0.9 69
2019-09-15 16:00:00 26.9 8 Sudoeste 18 Sudoeste 0 1016.1 -1 69
2019-09-15 15:00:00 27.1 9 Sudoeste 20 Oeste 0 1016.7 -0.1 69
2019-09-15 14:00:00 26.7 10 Sudoeste 20 Sudoeste 0 1016.9 0.5 71
2019-09-15 13:00:00 26.3 8 Sudoeste 17 Sudoeste 0 1017.1 1 74
2019-09-15 12:00:00 25.6 7 Sur 14 Sur 0 1016.8 1.1 77
2019-09-15 11:00:00 26.4 6 Sudoeste 11 Sudoeste 0 1016.4 0.9 70
2019-09-15 10:00:00 25.8 3 Oeste 6 Noroeste 0 1016.1 0.2 73
2019-09-15 09:00:00 22.1 3 Sur 7 Sudoeste 0 1015.7 0 90
2019-09-15 08:00:00 20.9 0 Calma 5 Noroeste 0 1015.5 -0.2 94
2019-09-15 07:00:00 21.2 3 Noroeste 7 Noroeste 0 1015.9 -0.3 94
2019-09-15 06:00:00 21.4 0 Calma 4 Oeste 0 1015.7 -0.8 94
2019-09-15 05:00:00 21.4 3 Norte 5 Nordeste 0 1015.7 -0.7 94
2019-09-15 04:00:00 21.5 4 Nordeste 6 Nordeste 0 1016.2 -0.5 95
2019-09-15 03:00:00 21.7 0 Calma 5 Oeste 0 1016.5 -0.4 94
2019-09-15 02:00:00 22 0 Calma 5 Norte 0 1016.4 -0.7 93
2019-09-15 01:00:00 22.5 0 Calma 5 Oeste 0 1016.7 -0.2 93
2019-09-15 00:00:00 23.1 3 Sudoeste 7 Sudoeste 0 1016.9 0.6 90